This is the latest recevied weather packets stored in our database for station/object KMSY. If no packets are shown the sender has not sent any weather packets the latest 10 day(s).
| Time | Temp. | Humidity | Pressure | Rain* | Wind** | Luminosity | Snow |
|---|---|---|---|---|---|---|---|
| 1777589617 | 22.78° C | 94% | 1010.2 hPa | - | - | - | - |
| 1777589022 | 22.78° C | 94% | 1010.2 hPa | - | - | - | - |
| 1777588421 | 22.78° C | 88% | 1009.5 hPa | - | - | - | - |
| 1777587817 | 22.78° C | 88% | 1009.5 hPa | - | - | - | - |
| 1777587214 | 22.78° C | 88% | 1009.5 hPa | - | - | - | - |
| 1777586623 | 23.89° C | 88% | 1009.8 hPa | - | - | - | - |
| 1777586023 | 22.78° C | 94% | 1009.8 hPa | - | - | - | - |
| 1777585422 | 22.78° C | 88% | 1009.8 hPa | - | - | - | - |
| 1777584818 | 23.89° C | 83% | 1009.8 hPa | - | - | - | - |
| 1777584215 | 23.89° C | 83% | 1009.8 hPa | - | - | - | - |
| 1777583617 | 23.89° C | 83% | 1009.8 hPa | - | - | - | - |
| 1777583019 | 23.89° C | 83% | 1009.8 hPa | - | - | - | - |
| 1777582421 | 23.89° C | 88% | 1010.2 hPa | - | - | - | - |
| 1777581816 | 23.89° C | 88% | 1010.2 hPa | - | - | - | - |
| 1777581217 | 23.89° C | 88% | 1010.2 hPa | - | - | - | - |
| 1777580618 | 23.89° C | 88% | 1010.2 hPa | - | - | - | - |
| 1777580015 | 23.89° C | 88% | 1010.2 hPa | - | - | - | - |
| 1777579417 | 23.89° C | 88% | 1010.2 hPa | - | - | - | - |
| 1777578818 | 25° C | 83% | 1010.8 hPa | - | - | - | - |
| 1777578218 | 25° C | 83% | 1010.8 hPa | - | - | - | - |
| 1777577621 | 25° C | 83% | 1010.8 hPa | - | - | - | - |
| 1777577015 | 25° C | 83% | 1010.8 hPa | - | - | - | - |
| 1777576417 | 25° C | 83% | 1010.8 hPa | - | - | - | - |
| 1777575817 | 25° C | 83% | 1010.8 hPa | - | - | - | - |
| 1777575218 | 22.78° C | 94% | 1012.2 hPa | - | - | - | - |
* Rain since midnight (hover to see other rain measurements)
** Current wind speed in m/s (hover to see current wind gust speed)